METAR Data
IDs: Format: Raw Decoded Include TAF

Data at: 1446 UTC 21 May 2019

KAMW 211400Z AUTO 10SM OVC013 08/06 A2995 RMK AO2 T00830061
KAMW 211353Z AUTO 10SM OVC015 08/06 A2995 RMK AO2 PK WND 12028/1332 SLP142 T00830061
KAMW 211343Z AUTO 10SM OVC015 08/06 A2994 RMK AO2 PK WND 12028/1332 T00830061
KAMW 211334Z AUTO 12019G28KT 10SM OVC013 08/06 A2994 RMK AO2 PK WND 12028/1332 T00830061
KAMW 211253Z AUTO 10015G28KT 10SM BKN015 OVC030 08/08 A2995 RMK AO2 PK WND 11028/1244 PRESFR SLP140 T00830078
KAMW 211208Z AUTO 11013G27KT 8SM BKN011 BKN019 OVC046 08/07 A2996 RMK AO2 PK WND 11027/1159 T00830067
KAMW 211153Z AUTO 10019G32KT 7SM SCT011 BKN035 OVC049 08/07 A2995 RMK AO2 PK WND 10032/1152 RAE53 SLP140 P0001 60011 70011 T00830067 10106 20083 58011
KAMW 211131Z AUTO 10016G27KT 3SM -RA BR SCT011 BKN019 OVC030 08/07 A2995 RMK AO2 PK WND 10027/1128 P0001 T00830067
KAMW 211053Z AUTO 11012G22KT 4SM -RA BR BKN011 OVC017 08/07 A2997 RMK AO2 SLP149 P0007 T00830072
KAMW 211026Z AUTO 10013G24KT 4SM -RA BR BKN011 OVC018 08/07 A2997 RMK AO2 P0005 T00830072
KAMW 210953Z AUTO 09012G21KT 5SM -RA BR SCT016 BKN022 OVC065 09/07 A2997 RMK AO2 RAB05 SLP146 P0003 T00890067
KAMW 210853Z AUTO 10012G24KT 10SM OVC060 10/06 A2998 RMK AO2 RAB37E50 SLP151 P0000 60000 T01000056 55013
KAMW 210753Z AUTO 09014G22KT 10SM OVC070 10/06 A2997 RMK AO2 SLP147 T01000061
KAMW 210653Z AUTO 10014G24KT 10SM OVC070 10/07 A2998 RMK AO2 SLP152 T01000067
KAMW 210553Z AUTO 11009G18KT 10SM BKN065 OVC095 11/07 A3002 RMK AO2 SLP164 T01060067 10133 20106 401440044 55002
KAMW 210453Z AUTO 10011KT 10SM OVC080 11/07 A3002 RMK AO2 SLP164 T01110067
KAMW 210353Z AUTO 10008KT 10SM BKN085 OVC100 11/07 A3002 RMK AO2 SLP166 T01110067
KAMW 210253Z AUTO 10006KT 10SM BKN095 OVC110 12/06 A3003 RMK AO2 SLP168 T01170061 58014
KAMW 210153Z AUTO 13007KT 10SM OVC120 12/06 A3006 RMK AO2 SLP179 T01170061
KAMW 210053Z AUTO 12006KT 10SM CLR 13/06 A3006 RMK AO2 SLP179 T01280056
KAMW 202353Z AUTO 09008KT 10SM CLR 13/04 A3007 RMK AO2 SLP183 T01330039 10144 20128 58014
KAMW 202253Z AUTO 07006KT 10SM CLR 14/04 A3008 RMK AO2 SLP186 T01390044
KAMW 202153Z AUTO 08008KT 10SM CLR 14/04 A3011 RMK AO2 SLP195 T01390044
KAMW 202053Z AUTO 06009KT 10SM BKN044 14/05 A3011 RMK AO2 SLP197 T01440050 58010
KAMW 201953Z AUTO 05006KT 10SM BKN044 14/04 A3014 RMK AO2 SLP205 T01390044
KAMW 201853Z AUTO 05010KT 10SM SCT040 13/04 A3014 RMK AO2 SLP206 T01330039
KAMW 201753Z AUTO VRB06G16KT 10SM BKN038 13/05 A3014 RMK AO2 SLP208 T01330050 10133 20056 58011
KAMW 201653Z AUTO 05010KT 10SM BKN032 11/04 A3018 RMK AO2 SLP219 T01110039
KAMW 201632Z AUTO 06008G19KT 10SM BKN031 11/04 A3017 RMK AO2 T01110044
KAMW 201553Z AUTO 03010KT 10SM OVC024 10/04 A3017 RMK AO2 SLP216 T01000044
KAMW 201453Z AUTO 03014KT 10SM OVC019 08/03 A3018 RMK AO2 SLP220 T00780033 53017
KAMW 201353Z AUTO 02013KT 10SM OVC019 07/03 A3015 RMK AO2 SLP211 T00670028
KAMW 201253Z AUTO 36014G21KT 10SM BKN017 06/02 A3012 RMK AO2 SLP203 T00610022
KAMW 201153Z AUTO 35010KT 10SM OVC020 06/02 A3012 RMK AO2 SLP203 70002 T00560022 10056 20044 53018 $
KAMW 201053Z AUTO 35007KT 10SM OVC021 05/02 A3010 RMK AO2 SLP194 T00500017 $
KAMW 200953Z AUTO 34009KT 10SM OVC022 05/02 A3009 RMK AO2 SLP192 T00500017 $
KAMW 200853Z AUTO 33010KT 10SM OVC020 05/02 A3007 RMK AO2 SLP184 T00500017 53010 $
KAMW 200753Z AUTO 34009KT 10SM OVC019 05/02 A3005 RMK AO2 SLP176 T00500017 $
KAMW 200653Z AUTO 35011KT 10SM OVC017 06/02 A3005 RMK AO2 SLP177 T00560022 $
KAMW 200553Z AUTO 34012G21KT 10SM BKN020 BKN026 06/02 A3004 RMK AO2 PK WND 34027/0533 SLP173 60001 T00560022 10111 20056 401500056 51033 $
KAMW 200502Z AUTO 34016G24KT 10SM OVC016 07/04 A3001 RMK AO2 T00670044 $
KAMW 200453Z AUTO 35015G23KT 10SM OVC014 07/04 A3001 RMK AO2 SLP163 T00670044 $
KAMW 200442Z AUTO 34018G24KT 10SM BKN012 OVC021 07/05 A3001 RMK AO2 T00720050 $
KAMW 200403Z AUTO 33010KT 10SM BKN022 OVC050 08/06 A2998 RMK AO2 T00780056 $
KAMW 200353Z AUTO 32012G18KT 10SM SCT020 OVC050 08/06 A2998 RMK AO2 SLP152 T00780056 $
KAMW 200319Z AUTO 32012KT 10SM SCT016 BKN030 OVC048 08/06 A2996 RMK AO2 T00830061 $
KAMW 200307Z AUTO 33011G21KT 10SM FEW010 BKN016 OVC030 08/06 A2995 RMK AO2 T00830061 $
KAMW 200253Z AUTO 34015G20KT 10SM BKN010 OVC018 08/07 A2994 RMK AO2 RAE07B28E38 SLP139 P0000 60001 T00830067 53029 $